Time;durP1;ratioP1;P1;durP2;ratioP2;P2;SDS_P1;SDS_P2;PMS_P1;PMS_P2;Temp;Humidity;BMP_temperature;BMP_pressure;BME280_temperature;BME280_humidity;BME280_pressure;Samples;Min_cycle;Max_cycle;Signal;HPM_P1;HPM_P2
2022/07/09 00:01:26;;;;;;;;;8.00;7.00;;;;;23.59;57.71;99162.03;4907742;28;104048;-55
2022/07/09 00:03:54;;;;;;;;;8.00;7.33;;;;;23.59;57.61;99165.63;4909383;28;102773;-54
2022/07/09 00:06:22;;;;;;;;;5.00;4.33;;;;;23.62;57.42;99170.59;4915063;28;102307;-54
2022/07/09 00:08:49;;;;;;;;;8.00;8.00;;;;;23.60;57.46;99170.03;4911695;28;102679;-54
2022/07/09 00:11:16;;;;;;;;;9.00;6.00;;;;;23.60;57.50;99170.03;4911112;28;104149;-55
2022/07/09 00:13:43;;;;;;;;;7.00;7.00;;;;;23.59;57.54;99173.91;4911628;28;102608;-54
2022/07/09 00:16:10;;;;;;;;;6.67;6.33;;;;;23.59;57.50;99168.41;4915355;28;102722;-54
2022/07/09 00:18:38;;;;;;;;;6.00;6.00;;;;;23.58;57.42;99163.97;4918688;28;102409;-54
2022/07/09 00:21:05;;;;;;;;;7.00;6.00;;;;;23.57;57.27;99162.31;4911362;28;108971;-54
2022/07/09 00:23:33;;;;;;;;;7.67;6.33;;;;;23.56;57.38;99155.13;4915179;28;102445;-54
2022/07/09 00:26:00;;;;;;;;;6.33;6.33;;;;;23.55;57.43;99158.97;4913682;28;102395;-55
2022/07/09 00:28:27;;;;;;;;;7.33;7.33;;;;;23.56;57.38;99157.88;4914310;28;102547;-55
2022/07/09 00:30:55;;;;;;;;;7.00;7.00;;;;;23.56;57.37;99164.22;4910596;28;105242;-55
2022/07/09 00:33:22;;;;;;;;;6.67;6.67;;;;;23.56;57.51;99166.16;4912402;28;103697;-54
2022/07/09 00:35:49;;;;;;;;;7.00;7.00;;;;;23.54;57.27;99158.16;4910044;28;102239;-55
2022/07/09 00:38:17;;;;;;;;;4.00;4.00;;;;;23.55;57.57;99156.22;4911051;28;102436;-55
2022/07/09 00:40:44;;;;;;;;;6.00;6.00;;;;;23.54;57.36;99160.09;4910051;28;104080;-55
2022/07/09 00:43:22;;;;;;;;;5.00;5.00;;;;;23.54;57.14;99157.34;4909978;28;102207;-55
2022/07/09 00:45:49;;;;;;;;;4.00;3.67;;;;;23.54;57.46;99173.91;4908860;28;102820;-54
2022/07/09 00:48:16;;;;;;;;;6.67;6.00;;;;;23.53;57.32;99161.19;4910913;28;103652;-55
2022/07/09 00:50:43;;;;;;;;;8.00;8.00;;;;;23.53;57.13;99161.19;4909261;28;103999;-55
2022/07/09 00:53:18;;;;;;;;;6.00;6.00;;;;;23.52;57.07;99160.34;4915304;28;102439;-54
2022/07/09 00:55:45;;;;;;;;;5.67;5.67;;;;;23.52;57.23;99165.88;4904760;28;102347;-54
2022/07/09 00:58:14;;;;;;;;;7.67;7.67;;;;;23.51;57.30;99164.22;4897164;28;102649;-55
2022/07/09 01:00:41;;;;;;;;;7.00;6.00;;;;;23.51;57.28;99158.69;4895684;28;104089;-54
2022/07/09 01:03:08;;;;;;;;;7.00;7.00;;;;;23.51;57.35;99155.09;4906753;28;102993;-55
2022/07/09 01:05:35;;;;;;;;;6.00;6.00;;;;;23.49;57.26;99152.63;4909752;28;102362;-54
2022/07/09 01:08:06;;;;;;;;;7.00;5.00;;;;;23.49;57.31;99160.06;4907547;28;105061;-54
2022/07/09 01:10:34;;;;;;;;;7.00;6.00;;;;;23.51;57.28;99157.84;4908273;28;104067;-55
2022/07/09 01:13:02;;;;;;;;;7.33;6.00;;;;;23.50;57.12;99164.50;4911813;28;102626;-54
2022/07/09 01:15:30;;;;;;;;;7.00;6.00;;;;;23.51;57.03;99155.09;4913089;28;102217;-54
2022/07/09 01:17:58;;;;;;;;;9.00;8.00;;;;;23.51;57.15;99158.69;4909366;28;103789;-54
2022/07/09 01:20:26;;;;;;;;;6.00;6.00;;;;;23.49;57.20;99158.16;4916878;28;104025;-54
2022/07/09 01:22:53;;;;;;;;;8.00;7.00;;;;;23.50;57.15;99156.22;4913712;28;102863;-54
2022/07/09 01:25:20;;;;;;;;;7.00;6.00;;;;;23.50;57.07;99161.75;4911221;28;102899;-55
2022/07/09 01:27:47;;;;;;;;;6.67;6.00;;;;;23.48;57.07;99155.66;4894329;28;103809;-55
2022/07/09 01:30:26;;;;;;;;;6.67;6.00;;;;;23.48;57.27;99148.19;4905820;28;104410;-55
2022/07/09 01:32:53;;;;;;;;;7.33;6.00;;;;;23.47;56.95;99143.78;4909472;28;102192;-55
2022/07/09 01:35:21;;;;;;;;;5.00;5.00;;;;;23.47;56.98;99140.19;4907425;28;103185;-54
2022/07/09 01:37:48;;;;;;;;;5.67;5.00;;;;;23.47;57.04;99140.19;4907428;28;102316;-55
2022/07/09 01:40:15;;;;;;;;;7.00;7.00;;;;;23.45;57.07;99147.91;4911350;28;104322;-55
2022/07/09 01:42:43;;;;;;;;;5.67;5.00;;;;;23.45;57.07;99142.41;4912315;28;104740;-59
2022/07/09 01:45:10;;;;;;;;;6.00;5.00;;;;;23.45;57.34;99136.88;4916567;28;102321;-55
2022/07/09 01:47:37;;;;;;;;;6.00;6.00;;;;;23.45;57.11;99136.88;4909087;28;102557;-55
2022/07/09 01:50:05;;;;;;;;;5.00;4.00;;;;;23.45;57.05;99139.66;4911786;28;104274;-55
2022/07/09 01:52:33;;;;;;;;;6.00;5.00;;;;;23.45;57.04;99136.88;4910319;28;104490;-54
2022/07/09 01:55:00;;;;;;;;;6.00;6.00;;;;;23.43;57.11;99134.34;4911119;28;102559;-55
2022/07/09 01:57:27;;;;;;;;;4.00;4.00;;;;;23.43;57.01;99136.28;4914537;28;102769;-55
2022/07/09 01:59:54;;;;;;;;;6.33;6.00;;;;;23.44;57.01;99135.22;4914072;28;104050;-54
2022/07/09 02:02:21;;;;;;;;;5.00;5.00;;;;;23.43;57.15;99134.34;4915859;28;102428;-54
2022/07/09 02:04:48;;;;;;;;;4.67;4.67;;;;;23.44;56.86;99140.72;4917059;28;102168;-55
2022/07/09 02:07:15;;;;;;;;;5.00;5.00;;;;;23.43;57.03;99133.50;4911951;28;102182;-55
2022/07/09 02:09:42;;;;;;;;;5.33;5.00;;;;;23.44;57.18;99126.94;4918468;28;104034;-55
2022/07/09 02:12:09;;;;;;;;;5.00;5.00;;;;;23.42;56.95;99127.16;4917100;28;102182;-54
2022/07/09 02:14:37;;;;;;;;;7.00;5.67;;;;;23.40;56.93;99123.88;4916585;28;102241;-54
2022/07/09 02:17:04;;;;;;;;;4.67;4.33;;;;;23.42;57.12;99120.81;4916957;28;102400;-55
2022/07/09 02:19:31;;;;;;;;;5.33;5.33;;;;;23.43;57.00;99111.44;4913998;28;104261;-54
2022/07/09 02:21:59;;;;;;;;;4.00;4.00;;;;;23.44;56.84;99113.13;4916693;28;102349;-55
2022/07/09 02:24:26;;;;;;;;;4.00;4.00;;;;;23.44;56.78;99110.38;4910427;28;102375;-55
2022/07/09 02:26:53;;;;;;;;;4.00;3.00;;;;;23.44;56.76;99116.72;4916132;28;103163;-55
2022/07/09 02:29:20;;;;;;;;;5.00;5.00;;;;;23.42;56.96;99120.81;4916097;28;104225;-55
2022/07/09 02:31:47;;;;;;;;;5.00;4.00;;;;;23.42;56.79;99107.84;4916259;28;102614;-54
2022/07/09 02:34:14;;;;;;;;;5.00;4.00;;;;;23.42;56.85;99115.28;4914523;28;103318;-55
2022/07/09 02:36:41;;;;;;;;;3.00;3.00;;;;;23.40;56.77;99117.50;4919522;28;102330;-55
2022/07/09 02:39:08;;;;;;;;;5.33;5.33;;;;;23.39;57.00;99113.09;4917864;28;108921;-55
2022/07/09 02:41:35;;;;;;;;;5.00;5.00;;;;;23.40;56.80;99123.88;4917018;28;102233;-55
2022/07/09 02:44:02;;;;;;;;;5.33;4.33;;;;;23.40;57.02;99114.75;4915108;28;102599;-55
2022/07/09 02:46:30;;;;;;;;;4.67;4.00;;;;;23.37;56.84;99118.06;4913391;28;102123;-54
2022/07/09 02:48:57;;;;;;;;;5.00;5.00;;;;;23.38;56.91;99119.69;4917100;28;104086;-55
2022/07/09 02:51:24;;;;;;;;;4.00;4.00;;;;;23.38;57.08;99119.69;4918755;28;102397;-54
2022/07/09 02:53:51;;;;;;;;;5.00;4.00;;;;;23.39;56.87;99118.59;4916158;28;102783;-55
2022/07/09 02:56:18;;;;;;;;;4.00;4.00;;;;;23.39;56.79;99116.69;4918069;28;102958;-55
2022/07/09 02:58:45;;;;;;;;;5.00;5.00;;;;;23.38;56.69;99109.50;4918894;28;103780;-54
2022/07/09 03:01:12;;;;;;;;;5.00;5.00;;;;;23.37;56.74;99112.53;4920953;28;102348;-54
2022/07/09 03:03:39;;;;;;;;;5.67;4.67;;;;;23.37;56.83;99104.25;4913288;28;102647;-54
2022/07/09 03:06:08;;;;;;;;;4.67;4.00;;;;;23.37;56.94;99115.31;4916536;28;102676;-55
2022/07/09 03:08:35;;;;;;;;;5.00;4.00;;;;;23.37;56.92;99112.53;4919003;28;104051;-54
2022/07/09 03:11:03;;;;;;;;;5.00;5.00;;;;;23.35;56.82;99111.97;4916779;28;105021;-54
2022/07/09 03:13:31;;;;;;;;;4.00;4.00;;;;;23.34;56.80;99107.53;4913176;28;102665;-54
2022/07/09 03:15:58;;;;;;;;;4.00;4.00;;;;;23.34;56.99;99110.31;4914081;28;102746;-54
2022/07/09 03:18:25;;;;;;;;;5.00;5.00;;;;;23.33;56.77;99106.72;4918304;28;104080;-55
2022/07/09 03:20:52;;;;;;;;;4.67;4.00;;;;;23.34;56.98;99104.78;4913754;28;101998;-54
2022/07/09 03:23:19;;;;;;;;;4.00;4.00;;;;;23.34;56.90;99099.25;4915300;28;102301;-55
2022/07/09 03:25:46;;;;;;;;;3.33;3.33;;;;;23.36;56.71;99099.84;4917298;28;102605;-55
2022/07/09 03:28:13;;;;;;;;;5.00;5.00;;;;;23.37;56.77;99104.25;4907737;28;104916;-55
2022/07/09 03:30:40;;;;;;;;;4.00;4.00;;;;;23.37;56.45;99109.78;4914707;28;102371;-54
2022/07/09 03:33:07;;;;;;;;;4.00;4.00;;;;;23.38;56.59;99108.66;4911967;28;103528;-54
2022/07/09 03:35:34;;;;;;;;;5.00;4.00;;;;;23.36;56.66;99099.84;4917613;28;104505;-54
2022/07/09 03:38:01;;;;;;;;;3.67;3.67;;;;;23.37;56.59;99101.50;4913028;28;104279;-55
2022/07/09 03:40:29;;;;;;;;;4.00;4.00;;;;;23.35;56.74;99099.00;4919523;28;102116;-54
2022/07/09 03:42:56;;;;;;;;;4.33;4.33;;;;;23.35;56.53;99098.16;4916679;28;102355;-54
2022/07/09 03:45:23;;;;;;;;;5.00;5.00;;;;;23.33;56.78;99098.44;4910975;28;104899;-55
2022/07/09 03:47:50;;;;;;;;;4.67;4.67;;;;;23.35;56.66;99098.16;4913809;28;104063;-55
2022/07/09 03:50:17;;;;;;;;;4.67;4.67;;;;;23.35;56.73;99095.41;4916254;28;103447;-55
2022/07/09 03:52:44;;;;;;;;;4.67;4.00;;;;;23.31;56.76;99099.81;4915033;28;102318;-54
2022/07/09 03:55:11;;;;;;;;;4.00;4.00;;;;;23.33;56.67;99094.84;4919505;28;103640;-54
2022/07/09 03:57:39;;;;;;;;;4.00;4.00;;;;;23.33;56.72;99100.34;4915727;28;108873;-54
2022/07/09 04:00:06;;;;;;;;;5.33;5.00;;;;;23.33;56.46;99094.84;4916560;28;102239;-54
2022/07/09 04:02:33;;;;;;;;;4.00;4.00;;;;;23.33;56.60;99100.34;4917602;28;102630;-54
2022/07/09 04:05:01;;;;;;;;;5.00;5.00;;;;;23.32;56.45;99094.03;4904822;28;102685;-55
2022/07/09 04:07:28;;;;;;;;;3.00;3.00;;;;;23.32;56.59;99095.97;4911916;28;105157;-55
2022/07/09 04:09:55;;;;;;;;;4.00;3.67;;;;;23.32;56.60;99087.69;4915679;28;103024;-55
2022/07/09 04:12:22;;;;;;;;;4.67;4.00;;;;;23.31;56.61;99094.31;4914257;28;103857;-55
2022/07/09 04:14:49;;;;;;;;;4.00;4.00;;;;;23.30;56.62;99090.72;4915402;28;102078;-54
2022/07/09 04:17:16;;;;;;;;;4.00;4.00;;;;;23.30;56.80;99098.97;4911418;28;104166;-54
2022/07/09 04:19:43;;;;;;;;;4.33;4.00;;;;;23.30;56.87;99089.88;4914372;28;102350;-54
2022/07/09 04:22:10;;;;;;;;;4.67;3.67;;;;;23.30;56.88;99082.44;4919730;28;103680;-55
2022/07/09 04:24:37;;;;;;;;;4.33;4.33;;;;;23.29;56.74;99085.44;4914199;28;102274;-55
2022/07/09 04:27:05;;;;;;;;;5.33;4.00;;;;;23.29;56.95;99088.22;4916339;28;104181;-54
2022/07/09 04:29:32;;;;;;;;;4.00;4.00;;;;;23.30;56.91;99082.44;4915821;28;102358;-55
2022/07/09 04:31:59;;;;;;;;;5.33;5.33;;;;;23.32;56.81;99093.22;4913357;28;102452;-55
2022/07/09 04:34:26;;;;;;;;;5.00;5.00;;;;;23.32;56.85;99087.69;4917470;28;103596;-54
2022/07/09 04:36:53;;;;;;;;;4.00;3.00;;;;;23.33;56.78;99089.31;4913358;28;104332;-55
2022/07/09 04:39:24;;;;;;;;;4.00;4.00;;;;;23.33;56.75;99090.16;4911892;28;102229;-55
2022/07/09 04:41:51;;;;;;;;;5.00;5.00;;;;;23.35;56.74;99087.13;4914112;28;102866;-54
2022/07/09 04:44:18;;;;;;;;;4.00;3.67;;;;;23.34;56.91;99086.31;4915198;28;102667;-55
2022/07/09 04:46:45;;;;;;;;;4.00;4.00;;;;;23.35;56.72;99087.13;4912378;28;104266;-55
2022/07/09 04:49:12;;;;;;;;;5.00;5.00;;;;;23.34;56.67;99088.22;4914662;28;102308;-54
2022/07/09 04:51:39;;;;;;;;;4.00;4.00;;;;;23.33;56.80;99089.31;4913031;28;105732;-54
2022/07/09 04:54:06;;;;;;;;;3.33;3.33;;;;;23.32;56.79;99088.53;4913544;28;102331;-54
2022/07/09 04:56:34;;;;;;;;;5.00;4.00;;;;;23.32;57.21;99082.16;4913672;28;104058;-55
2022/07/09 04:59:02;;;;;;;;;5.00;4.67;;;;;23.33;56.94;99086.56;4914676;28;102223;-54
2022/07/09 05:01:29;;;;;;;;;4.00;4.00;;;;;23.32;56.87;99093.22;4911765;28;102326;-54
2022/07/09 05:03:57;;;;;;;;;5.00;5.00;;;;;23.33;57.02;99101.19;4929412;28;102809;-54
2022/07/09 05:06:24;;;;;;;;;5.00;5.00;;;;;23.35;57.00;99100.94;4913646;28;104250;-54
2022/07/09 05:08:51;;;;;;;;;6.67;6.33;;;;;23.35;56.92;99110.03;4931362;28;102355;-54
2022/07/09 05:11:18;;;;;;;;;6.00;5.00;;;;;23.36;56.99;99106.19;4909829;28;103455;-54
2022/07/09 05:13:48;;;;;;;;;5.00;5.00;;;;;23.37;57.10;99107.03;4912131;28;102564;-55
2022/07/09 05:16:15;;;;;;;;;5.67;5.67;;;;;23.37;56.92;99105.06;4914190;28;105112;-55
2022/07/09 05:18:43;;;;;;;;;6.00;5.33;;;;;23.36;57.02;99105.34;4916171;28;102332;-55
2022/07/09 05:21:10;;;;;;;;;6.67;6.00;;;;;23.35;56.84;99101.75;4914760;28;103921;-55
2022/07/09 05:23:37;;;;;;;;;5.00;5.00;;;;;23.37;57.02;99101.50;4914022;28;102811;-55
2022/07/09 05:26:04;;;;;;;;;4.00;3.67;;;;;23.38;56.93;99103.13;4914667;28;104067;-55
2022/07/09 05:28:31;;;;;;;;;7.00;6.67;;;;;23.37;56.97;99107.81;4912473;28;102307;-55
2022/07/09 05:30:59;;;;;;;;;6.00;6.00;;;;;23.38;57.09;99094.84;4912156;28;104204;-55
2022/07/09 05:33:47;;;;;;;;;4.00;4.00;;;;;23.36;56.94;99094.31;4906898;28;103136;-55
2022/07/09 05:36:17;;;;;;;;;5.00;5.00;;;;;23.37;57.09;99095.97;4909923;28;104067;-54
2022/07/09 05:38:45;;;;;;;;;8.00;7.00;;;;;23.38;56.95;99089.34;4916937;28;102261;-57
2022/07/09 05:41:12;;;;;;;;;6.67;6.67;;;;;23.38;57.16;99092.09;4915170;28;102487;-54
2022/07/09 05:43:39;;;;;;;;;5.00;5.00;;;;;23.40;57.13;99090.75;4910335;28;102216;-54
2022/07/09 05:46:06;;;;;;;;;7.00;6.33;;;;;23.41;56.96;99088.81;4912409;28;104147;-54
2022/07/09 05:48:33;;;;;;;;;6.33;6.00;;;;;23.41;56.85;99086.06;4913832;28;102378;-54
2022/07/09 05:51:01;;;;;;;;;6.00;5.67;;;;;23.42;57.03;99094.03;4915233;28;102237;-54
2022/07/09 05:53:28;;;;;;;;;7.67;7.00;;;;;23.42;56.86;99084.94;4913322;28;102175;-56
2022/07/09 05:55:55;;;;;;;;;5.67;5.67;;;;;23.43;57.07;99084.66;4910685;28;104097;-55
2022/07/09 05:58:22;;;;;;;;;5.67;5.00;;;;;23.48;56.82;99083.88;4909794;28;102489;-55
2022/07/09 06:00:49;;;;;;;;;7.00;6.33;;;;;23.44;56.42;99080.84;4910688;28;102182;-54
2022/07/09 06:03:16;;;;;;;;;7.00;6.33;;;;;23.44;56.48;99071.72;4910226;28;103609;-54
2022/07/09 06:05:43;;;;;;;;;5.00;5.00;;;;;23.46;56.95;99075.06;4914682;28;104153;-54
2022/07/09 06:08:10;;;;;;;;;8.00;6.00;;;;;23.44;56.33;99075.31;4911872;28;102484;-55
2022/07/09 06:10:38;;;;;;;;;6.00;6.00;;;;;23.48;56.66;99075.59;4913372;28;102280;-54
2022/07/09 06:13:05;;;;;;;;;7.00;6.00;;;;;23.49;56.54;99067.06;4909838;28;102213;-54
2022/07/09 06:15:32;;;;;;;;;5.67;5.00;;;;;23.46;56.31;99075.06;4909838;28;104721;-54
2022/07/09 06:17:59;;;;;;;;;5.67;5.67;;;;;23.48;56.62;99070.06;4909427;28;103062;-54
2022/07/09 06:20:26;;;;;;;;;6.33;6.00;;;;;23.50;56.77;99065.97;4910793;28;102817;-54
2022/07/09 06:22:53;;;;;;;;;5.33;5.33;;;;;23.53;56.78;99075.59;4914390;28;102432;-54
2022/07/09 06:25:20;;;;;;;;;6.00;6.00;;;;;23.53;56.55;99070.91;4912236;28;104207;-54
2022/07/09 06:27:47;;;;;;;;;7.00;6.00;;;;;23.56;56.49;99073.13;4912378;28;102507;-54
2022/07/09 06:30:14;;;;;;;;;7.00;5.33;;;;;23.58;56.71;99064.56;4914351;28;102305;-55
2022/07/09 06:32:42;;;;;;;;;6.00;6.00;;;;;23.58;56.58;99072.88;4909399;28;102233;-54
2022/07/09 06:35:09;;;;;;;;;6.00;6.00;;;;;23.51;55.86;99064.84;4911226;28;104219;-54
2022/07/09 06:37:36;;;;;;;;;5.00;5.00;;;;;23.48;56.24;99070.06;4912853;28;102272;-54
2022/07/09 06:40:04;;;;;;;;;6.33;6.00;;;;;23.55;56.39;99073.38;4913715;28;102236;-54
2022/07/09 06:42:31;;;;;;;;;7.33;7.00;;;;;23.58;56.25;99070.09;4912851;28;102338;-54
2022/07/09 06:45:01;;;;;;;;;5.00;5.00;;;;;23.61;56.45;99064.03;4913393;28;105417;-54
2022/07/09 06:47:28;;;;;;;;;7.33;6.00;;;;;23.62;56.35;99053.81;4914905;28;102574;-54
2022/07/09 06:49:55;;;;;;;;;5.00;5.00;;;;;23.62;56.42;99049.13;4910511;28;102215;-54
2022/07/09 06:52:22;;;;;;;;;6.33;6.33;;;;;23.64;56.42;99049.66;4916565;28;102181;-54
2022/07/09 06:54:50;;;;;;;;;7.00;5.67;;;;;23.63;56.35;99050.78;4910608;28;104028;-54
2022/07/09 06:57:17;;;;;;;;;6.67;6.00;;;;;23.65;56.26;99047.72;4913141;28;102356;-54
2022/07/09 06:59:47;;;;;;;;;7.00;6.67;;;;;23.63;56.27;99042.50;4919850;28;102913;-54
2022/07/09 07:02:17;;;;;;;;;6.00;5.00;;;;;23.62;56.33;99046.34;4914422;28;106087;-54
2022/07/09 07:04:44;;;;;;;;;6.00;6.00;;;;;23.63;56.31;99048.03;4914294;28;109497;-54
2022/07/09 07:07:12;;;;;;;;;7.00;6.00;;;;;23.61;56.19;99044.69;4917774;28;102165;-54
2022/07/09 07:09:39;;;;;;;;;9.00;6.00;;;;;23.65;56.20;99048.56;4908713;28;103293;-55
2022/07/09 07:12:06;;;;;;;;;5.67;5.67;;;;;23.66;56.27;99049.38;4911983;28;102836;-54
2022/07/09 07:14:33;;;;;;;;;7.33;7.00;;;;;23.63;56.17;99049.94;4913873;28;104140;-54
2022/07/09 07:17:00;;;;;;;;;6.00;6.00;;;;;23.64;56.09;99049.66;4909203;28;103095;-54
2022/07/09 07:19:28;;;;;;;;;5.33;5.33;;;;;23.67;56.22;99048.28;4913794;28;102158;-54
2022/07/09 07:21:55;;;;;;;;;5.00;5.00;;;;;23.65;56.20;99048.56;4917125;28;105706;-54
2022/07/09 07:24:25;;;;;;;;;5.00;5.00;;;;;23.67;55.92;99040.84;4914821;28;104239;-54
2022/07/09 07:26:56;;;;;;;;;5.00;5.00;;;;;23.68;56.04;99047.19;4919802;28;102155;-54
2022/07/09 07:29:24;;;;;;;;;6.00;6.00;;;;;23.66;56.19;99039.19;4916160;28;102613;-54
2022/07/09 07:31:51;;;;;;;;;5.33;5.33;;;;;23.66;56.04;99043.88;4913783;28;102253;-54
2022/07/09 07:34:22;;;;;;;;;5.00;5.00;;;;;23.63;56.17;99039.75;4909874;28;104081;-54
2022/07/09 07:36:50;;;;;;;;;6.33;6.33;;;;;23.65;56.12;99047.72;4911219;28;102231;-55
2022/07/09 07:39:18;;;;;;;;;5.67;5.67;;;;;23.64;56.24;99040.56;4914326;28;102364;-54
2022/07/09 07:41:45;;;;;;;;;5.00;5.00;;;;;23.68;55.97;99042.50;4916362;28;102381;-55
2022/07/09 07:44:12;;;;;;;;;6.00;5.00;;;;;23.68;56.03;99033.38;4934236;28;108758;-54
2022/07/09 07:46:39;;;;;;;;;4.67;4.33;;;;;23.69;55.93;99038.63;4910380;28;102227;-54
2022/07/09 07:49:06;;;;;;;;;5.00;5.00;;;;;23.68;56.01;99034.22;4910335;28;102322;-54
2022/07/09 07:51:34;;;;;;;;;5.33;5.00;;;;;23.70;56.00;99028.41;4915357;28;102208;-54
2022/07/09 07:54:01;;;;;;;;;6.00;5.00;;;;;23.71;56.04;99024.53;4914511;28;104277;-54
2022/07/09 07:56:28;;;;;;;;;5.00;5.00;;;;;23.71;56.01;99021.78;4912767;28;102278;-54
2022/07/09 07:58:55;;;;;;;;;6.00;6.00;;;;;23.73;56.03;99020.38;4913835;28;103096;-54
2022/07/09 08:01:23;;;;;;;;;6.00;5.00;;;;;23.73;55.87;99027.88;4918112;28;102393;-55
2022/07/09 08:03:50;;;;;;;;;6.33;5.67;;;;;23.73;55.93;99025.13;4913775;28;103047;-54
2022/07/09 08:06:17;;;;;;;;;5.00;4.67;;;;;23.71;55.91;99014.34;4908554;28;102162;-55
2022/07/09 08:08:44;;;;;;;;;4.67;4.67;;;;;23.70;55.99;99017.34;4916667;28;102363;-54
2022/07/09 08:11:12;;;;;;;;;5.00;5.00;;;;;23.71;56.03;99017.09;4915114;28;102698;-54
2022/07/09 08:13:39;;;;;;;;;5.00;5.00;;;;;23.73;55.71;99014.06;4912274;28;104082;-54
2022/07/09 08:16:06;;;;;;;;;6.67;6.67;;;;;23.72;55.71;99009.63;4913762;28;104274;-54
2022/07/09 08:18:33;;;;;;;;;5.67;5.00;;;;;23.72;55.81;99018.75;4911932;28;103698;-54
2022/07/09 08:21:01;;;;;;;;;7.00;6.33;;;;;23.74;55.96;99013.78;4915933;28;102744;-54
2022/07/09 08:23:28;;;;;;;;;6.00;5.00;;;;;23.73;55.73;99017.63;4913037;28;104231;-54
2022/07/09 08:25:55;;;;;;;;;4.00;4.00;;;;;23.74;55.63;99013.78;4912040;28;102327;-54
2022/07/09 08:28:23;;;;;;;;;5.67;5.00;;;;;23.74;55.78;99012.94;4914950;28;102537;-54
2022/07/09 08:30:50;;;;;;;;;5.00;5.00;;;;;23.73;55.98;99011.31;4913887;28;103290;-55
2022/07/09 08:33:17;;;;;;;;;5.67;5.67;;;;;23.69;55.58;99013.75;4913939;28;104228;-54
2022/07/09 08:35:44;;;;;;;;;7.00;5.00;;;;;23.64;52.76;99004.69;4915124;28;102083;-54
2022/07/09 08:38:11;;;;;;;;;7.00;6.33;;;;;23.56;53.03;99006.03;4910346;28;110864;-54
2022/07/09 08:40:38;;;;;;;;;9.00;9.00;;;;;23.55;53.65;99002.44;4913574;28;103000;-54
2022/07/09 08:43:05;;;;;;;;;13.33;12.00;;;;;23.58;54.11;99009.38;4911473;28;104112;-54
2022/07/09 08:45:32;;;;;;;;;9.00;9.00;;;;;23.63;54.13;99011.28;4914222;28;102246;-54
2022/07/09 08:48:00;;;;;;;;;9.00;8.67;;;;;23.63;54.38;99009.38;4929853;28;102359;-54
2022/07/09 08:50:28;;;;;;;;;9.33;9.00;;;;;23.64;54.71;98997.19;4915032;28;102616;-55
2022/07/09 08:52:55;;;;;;;;;8.67;8.67;;;;;23.65;54.67;99003.56;4913575;28;104087;-54
2022/07/09 08:55:22;;;;;;;;;8.00;7.67;;;;;23.67;54.60;99002.19;4914033;28;102904;-54
2022/07/09 08:57:50;;;;;;;;;9.00;8.00;;;;;23.63;53.71;99003.00;4907296;28;102285;-54
2022/07/09 09:00:17;;;;;;;;;7.67;7.67;;;;;23.63;54.32;99003.84;4912101;28;102915;-54
2022/07/09 09:02:44;;;;;;;;;8.00;7.00;;;;;23.57;53.87;98999.41;4910983;28;104059;-54
2022/07/09 09:05:13;;;;;;;;;5.33;5.33;;;;;23.60;54.24;99001.63;4916374;28;102809;-54
2022/07/09 09:07:41;;;;;;;;;8.00;7.00;;;;;23.63;54.24;98990.03;4908450;28;102211;-54
2022/07/09 09:10:08;;;;;;;;;7.00;5.33;;;;;23.65;54.33;98982.28;4930745;28;102678;-54
2022/07/09 09:12:35;;;;;;;;;7.33;6.00;;;;;23.69;54.64;98979.78;4921427;28;104064;-55
2022/07/09 09:15:06;;;;;;;;;6.00;6.00;;;;;23.68;54.45;98976.25;4914440;28;101995;-54
2022/07/09 09:17:33;;;;;;;;;7.33;6.00;;;;;23.70;54.69;98967.66;4914540;28;102176;-55
2022/07/09 09:20:11;;;;;;;;;7.67;7.67;;;;;23.69;54.78;98972.34;4914895;28;102486;-55
2022/07/09 09:22:44;;;;;;;;;7.00;7.00;;;;;23.71;54.74;98972.09;4914718;28;104065;-54
2022/07/09 09:25:18;;;;;;;;;4.00;4.00;;;;;23.70;54.38;98965.72;4916462;28;102423;-54
2022/07/09 09:27:52;;;;;;;;;9.00;7.67;;;;;23.72;54.79;98971.81;4916038;28;102650;-54
2022/07/09 09:30:19;;;;;;;;;5.00;5.00;;;;;23.71;54.48;98956.34;4909928;28;103090;-54
2022/07/09 09:33:03;;;;;;;;;7.33;6.00;;;;;23.70;54.50;98965.72;4914414;28;104043;-54
2022/07/09 09:35:33;;;;;;;;;6.33;6.00;;;;;23.71;54.41;98959.09;4910380;28;102451;-54
2022/07/09 09:38:00;;;;;;;;;5.67;5.67;;;;;23.72;54.34;98954.41;4916866;28;102464;-54
2022/07/09 09:40:27;;;;;;;;;5.67;5.33;;;;;23.73;54.38;98956.88;4931279;28;103130;-54
2022/07/09 09:42:56;;;;;;;;;8.00;7.00;;;;;23.71;53.97;98948.06;4911257;28;104132;-54
2022/07/09 09:45:24;;;;;;;;;6.00;5.67;;;;;23.69;54.18;98939.22;4911141;28;102472;-54
2022/07/09 09:47:51;;;;;;;;;5.00;4.67;;;;;23.72;54.09;98949.72;4909739;28;102503;-54
2022/07/09 09:50:20;;;;;;;;;6.00;6.00;;;;;23.72;54.24;98941.44;4911084;28;102436;-55
2022/07/09 09:52:48;;;;;;;;;7.33;7.00;;;;;23.72;54.23;98938.69;4917544;28;104045;-54
2022/07/09 09:55:16;;;;;;;;;6.67;6.00;;;;;23.71;54.42;98942.53;4913148;28;104432;-54
2022/07/09 09:57:43;;;;;;;;;4.67;4.67;;;;;23.72;54.07;98941.44;4895000;28;102694;-55
2022/07/09 10:00:11;;;;;;;;;5.00;5.00;;;;;23.73;53.99;98932.03;4910443;28;102521;-54
2022/07/09 10:02:43;;;;;;;;;8.00;6.00;;;;;23.72;53.88;98926.81;4912746;28;104274;-54
2022/07/09 10:05:10;;;;;;;;;4.00;4.00;;;;;23.73;54.08;98920.97;4912346;28;102750;-54
2022/07/09 10:07:38;;;;;;;;;5.67;4.00;;;;;23.74;53.69;98919.88;4913165;28;102100;-54
2022/07/09 10:10:06;;;;;;;;;5.00;5.00;;;;;23.74;53.90;98919.88;4912210;28;102282;-54
2022/07/09 10:12:40;;;;;;;;;5.67;5.67;;;;;23.75;53.98;98917.94;4911546;28;104179;-54
2022/07/09 10:15:08;;;;;;;;;7.00;6.33;;;;;23.75;53.78;98904.97;4914669;28;102582;-55
2022/07/09 10:17:41;;;;;;;;;6.00;6.00;;;;;23.78;53.88;98909.09;4913466;28;102230;-54
2022/07/09 10:20:10;;;;;;;;;6.00;4.67;;;;;23.78;53.59;98909.94;4912735;28;102291;-55
2022/07/09 10:22:41;;;;;;;;;5.00;5.00;;;;;23.73;51.07;98915.44;4907335;28;104094;-54
2022/07/09 10:25:09;;;;;;;;;6.33;5.33;;;;;23.68;50.89;98920.19;4914782;28;102305;-54
2022/07/09 10:27:46;;;;;;;;;4.00;4.00;;;;;23.63;50.03;98909.97;4919224;28;102554;-54
2022/07/09 10:30:26;;;;;;;;;4.67;4.00;;;;;23.59;48.45;98900.59;4915910;28;102291;-53
2022/07/09 10:33:23;;;;;;;;;4.00;4.00;;;;;23.53;49.01;98901.69;4921621;28;110513;-54
2022/07/09 10:35:59;;;;;;;;;3.00;3.00;;;;;23.51;48.51;98903.88;4924672;28;102204;-54
2022/07/09 10:38:34;;;;;;;;;3.00;3.00;;;;;23.52;49.06;98898.09;4919071;28;102680;-54
2022/07/09 10:41:03;;;;;;;;;3.00;3.00;;;;;23.49;48.50;98895.06;4919056;28;103305;-54
2022/07/09 10:43:52;;;;;;;;;3.67;3.00;;;;;23.49;48.69;98886.78;4912715;28;104057;-54
2022/07/09 10:46:19;;;;;;;;;3.00;3.00;;;;;23.48;48.57;98879.63;4911636;28;102986;-54
2022/07/09 10:48:46;;;;;;;;;3.67;3.67;;;;;23.49;48.64;98878.50;4919930;28;102598;-55
2022/07/09 10:51:21;;;;;;;;;3.33;3.33;;;;;23.49;48.91;98873.00;4913683;28;102264;-55
2022/07/09 10:53:48;;;;;;;;;2.00;2.00;;;;;23.49;48.36;98861.97;4909665;28;109828;-54
2022/07/09 10:56:19;;;;;;;;;2.33;2.33;;;;;23.48;47.35;98857.53;4927272;28;102251;-54
2022/07/09 10:58:47;;;;;;;;;3.67;3.00;;;;;23.48;47.98;98871.34;4915699;28;102776;-54
2022/07/09 11:01:21;;;;;;;;;3.33;3.33;;;;;23.41;47.27;98865.25;4910776;28;102529;-54
2022/07/09 11:03:50;;;;;;;;;2.00;2.00;;;;;23.39;47.29;98861.94;4912776;28;108801;-54
2022/07/09 11:06:17;;;;;;;;;2.00;2.00;;;;;23.39;47.23;98867.44;4913486;28;102334;-54
2022/07/09 11:08:44;;;;;;;;;3.00;2.33;;;;;23.31;47.08;98863.31;4913224;28;104180;-54
2022/07/09 11:11:12;;;;;;;;;3.67;3.67;;;;;23.33;46.05;98854.75;4934176;28;102604;-54
2022/07/09 11:13:39;;;;;;;;;3.00;3.00;;;;;23.35;46.97;98855.31;4909368;28;104903;-54
2022/07/09 11:16:06;;;;;;;;;2.00;2.00;;;;;23.36;47.68;98856.97;4929811;28;102154;-55
2022/07/09 11:18:33;;;;;;;;;1.33;1.33;;;;;23.38;47.82;98843.72;4914782;28;102133;-55
2022/07/09 11:21:01;;;;;;;;;3.00;2.00;;;;;23.42;48.64;98840.13;4917740;28;102640;-54
2022/07/09 11:23:28;;;;;;;;;2.33;2.33;;;;;23.45;46.87;98838.78;4913738;28;104042;-54
2022/07/09 11:25:55;;;;;;;;;2.67;2.67;;;;;23.45;48.15;98838.78;4918793;28;102439;-54
2022/07/09 11:28:23;;;;;;;;;3.00;3.00;;;;;23.46;48.19;98832.97;4916741;28;102524;-55